Time;durP1;ratioP1;P1;durP2;ratioP2;P2;SDS_P1;SDS_P2;PMS_P1;PMS_P2;Temp;Humidity;BMP_temperature;BMP_pressure;BME280_temperature;BME280_humidity;BME280_pressure;Samples;Min_cycle;Max_cycle;Signal;HPM_P1;HPM_P2
2021/04/02 00:02:07;;;;;;;;;;;18.00;63.60;;;;;;5042290;28;19920;-59
2021/04/02 00:04:33;;;;;;;;;;;18.00;63.50;;;;;;5025561;28;19913;-60
2021/04/02 00:06:58;;;;;;;;;;;18.00;63.60;;;;;;5028360;28;19910;-60
2021/04/02 00:09:24;;;;;;;;;;;18.00;63.70;;;;;;5027874;28;19921;-60
2021/04/02 00:11:49;;;;;;;;;;;18.00;63.80;;;;;;5027728;28;19909;-57
2021/04/02 00:14:15;;;;;;;;;;;17.90;63.80;;;;;;5026886;28;19958;-58
2021/04/02 00:16:41;;;;;;;;;;;17.90;63.90;;;;;;5027979;28;19916;-57
2021/04/02 00:19:06;;;;;;;;;;;17.90;64.00;;;;;;5028506;28;19923;-61
2021/04/02 00:21:31;;;;;;;;;;;17.90;63.90;;;;;;5027850;28;19917;-58
2021/04/02 00:23:57;;;;;;;;;;;17.90;64.00;;;;;;5026939;28;19909;-57
2021/04/02 00:26:23;;;;;;;;;;;17.80;64.00;;;;;;5027666;28;20409;-56
2021/04/02 00:28:49;;;;;;;;;;;17.80;64.00;;;;;;5026425;28;19913;-57
2021/04/02 00:31:14;;;;;;;;;;;17.80;64.10;;;;;;5026285;28;19909;-59
2021/04/02 00:33:40;;;;;;;;;;;17.70;64.10;;;;;;5027720;28;19943;-56
2021/04/02 00:36:05;;;;;;;;;;;17.70;64.20;;;;;;5028832;28;19924;-60
2021/04/02 00:38:31;;;;;;;;;;;17.70;64.20;;;;;;5026701;28;19917;-58
2021/04/02 00:41:00;;;;;;;;;;;17.70;64.30;;;;;;5026780;28;19930;-57
2021/04/02 00:43:27;;;;;;;;;;;17.70;64.40;;;;;;5027547;28;20157;-58
2021/04/02 00:45:52;;;;;;;;;;;17.60;64.40;;;;;;5026355;28;19913;-58
2021/04/02 00:48:18;;;;;;;;;;;17.60;64.50;;;;;;5025946;28;20276;-58
2021/04/02 00:50:45;;;;;;;;;;;17.60;64.50;;;;;;5026829;28;19959;-58
2021/04/02 00:53:11;;;;;;;;;;;17.60;64.50;;;;;;5023715;28;19967;-59
2021/04/02 00:55:36;;;;;;;;;;;17.60;64.60;;;;;;5025218;28;19957;-58
2021/04/02 00:58:02;;;;;;;;;;;17.50;64.60;;;;;;5027169;28;19913;-57
2021/04/02 01:00:27;;;;;;;;;;;17.50;64.60;;;;;;5025893;28;19916;-57
2021/04/02 01:02:53;;;;;;;;;;;17.50;64.80;;;;;;5026910;28;19913;-59
2021/04/02 01:05:21;;;;;;;;;;;17.50;64.80;;;;;;5025967;28;19913;-59
2021/04/02 01:07:47;;;;;;;;;;;17.50;64.90;;;;;;5023567;28;19921;-58
2021/04/02 01:10:14;;;;;;;;;;;17.40;64.80;;;;;;5025283;28;19963;-57
2021/04/02 01:12:39;;;;;;;;;;;17.40;64.90;;;;;;5027140;28;19913;-58
2021/04/02 01:15:08;;;;;;;;;;;17.40;65.00;;;;;;5009883;28;19917;-58
2021/04/02 01:17:33;;;;;;;;;;;17.40;65.00;;;;;;5025686;28;19923;-58
2021/04/02 01:19:59;;;;;;;;;;;17.30;65.00;;;;;;5024085;28;20330;-60
2021/04/02 01:22:26;;;;;;;;;;;17.30;65.00;;;;;;5024211;28;19916;-58
2021/04/02 01:25:15;;;;;;;;;;;17.30;65.00;;;;;;5025784;28;19917;-59
2021/04/02 01:27:40;;;;;;;;;;;17.30;65.20;;;;;;5020530;28;20007;-57
2021/04/02 01:30:09;;;;;;;;;;;17.20;65.20;;;;;;5025090;28;20020;-57
2021/04/02 01:32:41;;;;;;;;;;;17.20;65.90;;;;;;5024044;28;19923;-58
2021/04/02 01:35:33;;;;;;;;;;;17.20;65.30;;;;;;5025465;28;19943;-57
2021/04/02 01:37:59;;;;;;;;;;;17.20;65.40;;;;;;5024866;28;19913;-58
2021/04/02 01:40:25;;;;;;;;;;;17.10;65.40;;;;;;5027125;28;20320;-59
2021/04/02 01:42:51;;;;;;;;;;;17.10;65.40;;;;;;5024608;28;19924;-55
2021/04/02 01:45:17;;;;;;;;;;;17.10;65.50;;;;;;5023884;28;19917;-60
2021/04/02 01:47:42;;;;;;;;;;;17.10;65.60;;;;;;5022179;28;19948;-57
2021/04/02 01:50:08;;;;;;;;;;;17.10;65.60;;;;;;5026537;28;19940;-58
2021/04/02 01:52:34;;;;;;;;;;;17.10;65.70;;;;;;5025461;28;19915;-56
2021/04/02 01:54:59;;;;;;;;;;;17.00;65.70;;;;;;5026328;28;19918;-59
2021/04/02 01:57:25;;;;;;;;;;;17.00;65.80;;;;;;5023910;28;19909;-55
2021/04/02 01:59:50;;;;;;;;;;;17.00;65.80;;;;;;5022369;28;20379;-57
2021/04/02 02:02:16;;;;;;;;;;;17.00;65.80;;;;;;5023765;28;19918;-60
2021/04/02 02:04:41;;;;;;;;;;;17.00;65.80;;;;;;5026051;28;19924;-57
2021/04/02 02:07:07;;;;;;;;;;;17.00;65.90;;;;;;5025852;28;20462;-58
2021/04/02 02:09:38;;;;;;;;;;;17.00;65.90;;;;;;5023267;28;19917;-57
2021/04/02 02:12:04;;;;;;;;;;;16.90;65.90;;;;;;5026058;28;20286;-58
2021/04/02 02:14:30;;;;;;;;;;;16.90;66.00;;;;;;5024428;28;19957;-60
2021/04/02 02:16:57;;;;;;;;;;;16.80;66.00;;;;;;5024227;28;20223;-59
2021/04/02 02:19:26;;;;;;;;;;;16.90;66.10;;;;;;5024326;28;19910;-59
2021/04/02 02:21:51;;;;;;;;;;;16.80;66.10;;;;;;5025994;28;19916;-58
2021/04/02 02:24:17;;;;;;;;;;;16.80;66.10;;;;;;5006501;28;19917;-59
2021/04/02 02:26:42;;;;;;;;;;;16.80;66.10;;;;;;5025407;28;19917;-57
2021/04/02 02:29:11;;;;;;;;;;;16.80;66.10;;;;;;5025735;28;19917;-57
2021/04/02 02:31:37;;;;;;;;;;;16.80;66.30;;;;;;5025880;28;19919;-57
2021/04/02 02:34:03;;;;;;;;;;;16.70;66.20;;;;;;5026765;28;19909;-59
2021/04/02 02:36:28;;;;;;;;;;;16.70;66.30;;;;;;5006858;28;20407;-57
2021/04/02 02:38:54;;;;;;;;;;;16.70;66.30;;;;;;5023860;28;20010;-57
2021/04/02 02:41:20;;;;;;;;;;;16.70;66.40;;;;;;5026409;28;19945;-60
2021/04/02 02:43:46;;;;;;;;;;;16.70;66.40;;;;;;5023955;28;20525;-59
2021/04/02 02:46:12;;;;;;;;;;;16.60;66.40;;;;;;5024128;28;19939;-57
2021/04/02 02:48:37;;;;;;;;;;;16.60;66.50;;;;;;5023875;28;19917;-59
2021/04/02 02:51:03;;;;;;;;;;;16.60;67.20;;;;;;5025354;28;19913;-59
2021/04/02 02:53:28;;;;;;;;;;;16.60;67.30;;;;;;5022239;28;20745;-57
2021/04/02 02:55:54;;;;;;;;;;;16.60;66.70;;;;;;5020725;28;19917;-57
2021/04/02 02:58:23;;;;;;;;;;;16.50;66.70;;;;;;5023811;28;19924;-56
2021/04/02 03:00:49;;;;;;;;;;;16.50;66.70;;;;;;5026030;28;19948;-56
2021/04/02 03:03:15;;;;;;;;;;;16.50;66.80;;;;;;5022641;28;20338;-57
2021/04/02 03:05:49;;;;;;;;;;;16.50;66.80;;;;;;5022991;28;19940;-57
2021/04/02 03:08:15;;;;;;;;;;;16.50;66.80;;;;;;5023523;28;19913;-56
2021/04/02 03:10:41;;;;;;;;;;;16.40;66.80;;;;;;5025129;28;19913;-57
2021/04/02 03:13:06;;;;;;;;;;;16.40;66.80;;;;;;5027232;28;19917;-60
2021/04/02 03:15:32;;;;;;;;;;;16.40;66.90;;;;;;5025958;28;20436;-58
2021/04/02 03:17:59;;;;;;;;;;;16.40;67.00;;;;;;5026220;28;20000;-59
2021/04/02 03:20:24;;;;;;;;;;;16.40;67.00;;;;;;5011050;28;20147;-61
2021/04/02 03:22:51;;;;;;;;;;;16.40;67.20;;;;;;5028531;28;20265;-58
2021/04/02 03:25:17;;;;;;;;;;;16.30;67.10;;;;;;5027411;28;19932;-60
2021/04/02 03:27:42;;;;;;;;;;;16.30;67.10;;;;;;5029819;28;19921;-56
2021/04/02 03:30:08;;;;;;;;;;;16.30;67.20;;;;;;5027469;28;19916;-58
2021/04/02 03:32:34;;;;;;;;;;;16.30;67.20;;;;;;5027490;28;20403;-58
2021/04/02 03:34:59;;;;;;;;;;;16.20;67.20;;;;;;5029188;28;19960;-59
2021/04/02 03:37:25;;;;;;;;;;;16.20;67.30;;;;;;5027411;28;20308;-56
2021/04/02 03:39:50;;;;;;;;;;;16.20;67.30;;;;;;5026629;28;19924;-59
2021/04/02 03:42:16;;;;;;;;;;;16.20;67.30;;;;;;5026528;28;19913;-59
2021/04/02 03:44:41;;;;;;;;;;;16.20;67.40;;;;;;5027574;28;19920;-58
2021/04/02 03:47:09;;;;;;;;;;;16.10;67.40;;;;;;5028980;28;19979;-57
2021/04/02 03:49:35;;;;;;;;;;;16.10;67.40;;;;;;5026296;28;20327;-56
2021/04/02 03:52:01;;;;;;;;;;;16.10;67.50;;;;;;5027246;28;19909;-59
2021/04/02 03:54:28;;;;;;;;;;;16.10;67.50;;;;;;5027420;28;19922;-57
2021/04/02 03:56:54;;;;;;;;;;;16.10;67.50;;;;;;5027582;28;20276;-56
2021/04/02 03:59:21;;;;;;;;;;;16.00;67.50;;;;;;5028142;28;19916;-59
2021/04/02 04:01:46;;;;;;;;;;;16.00;67.60;;;;;;5027987;28;19920;-58
2021/04/02 04:04:12;;;;;;;;;;;16.00;67.70;;;;;;5010199;28;19917;-57
2021/04/02 04:06:37;;;;;;;;;;;16.00;67.60;;;;;;5025993;28;19909;-56
2021/04/02 04:09:13;;;;;;;;;;;16.00;67.70;;;;;;5025407;28;19921;-60
2021/04/02 04:11:39;;;;;;;;;;;15.90;67.60;;;;;;5025726;28;19909;-58
2021/04/02 04:14:04;;;;;;;;;;;15.90;67.70;;;;;;5026385;28;20031;-58
2021/04/02 04:16:30;;;;;;;;;;;15.90;67.70;;;;;;5011222;28;19948;-58
2021/04/02 04:18:58;;;;;;;;;;;15.90;67.80;;;;;;5026238;28;19936;-59
2021/04/02 04:21:24;;;;;;;;;;;15.80;67.90;;;;;;5009318;28;20432;-58
2021/04/02 04:23:50;;;;;;;;;;;15.80;67.90;;;;;;5027019;28;19923;-58
2021/04/02 04:26:15;;;;;;;;;;;15.80;68.00;;;;;;5026331;28;20003;-60
2021/04/02 04:28:41;;;;;;;;;;;15.80;68.00;;;;;;5026506;28;19917;-59
2021/04/02 04:31:07;;;;;;;;;;;15.70;67.90;;;;;;5026051;28;19916;-56
2021/04/02 04:33:33;;;;;;;;;;;15.70;67.90;;;;;;5026678;28;19978;-59
2021/04/02 04:35:58;;;;;;;;;;;15.70;68.00;;;;;;5024751;28;20459;-57
2021/04/02 04:38:24;;;;;;;;;;;15.80;68.00;;;;;;5026537;28;19917;-60
2021/04/02 04:40:50;;;;;;;;;;;15.80;68.00;;;;;;5029255;28;19933;-59
2021/04/02 04:43:15;;;;;;;;;;;15.70;68.00;;;;;;5026300;28;19967;-59
2021/04/02 04:45:40;;;;;;;;;;;15.70;68.10;;;;;;5023082;28;19917;-58
2021/04/02 04:48:06;;;;;;;;;;;15.70;68.10;;;;;;5021090;28;19925;-56
2021/04/02 04:50:32;;;;;;;;;;;15.60;68.10;;;;;;5027136;28;20398;-60
2021/04/02 04:53:01;;;;;;;;;;;15.60;68.10;;;;;;5026710;28;19920;-58
2021/04/02 04:55:26;;;;;;;;;;;15.60;68.10;;;;;;5026390;28;20160;-58
2021/04/02 04:57:52;;;;;;;;;;;15.60;68.30;;;;;;5027271;28;19917;-58
2021/04/02 05:00:18;;;;;;;;;;;15.60;68.90;;;;;;5024233;28;20403;-57
2021/04/02 05:02:44;;;;;;;;;;;15.50;68.20;;;;;;5024347;28;19948;-58
2021/04/02 05:05:10;;;;;;;;;;;15.50;68.20;;;;;;5025173;28;19917;-59
2021/04/02 05:07:36;;;;;;;;;;;15.50;68.20;;;;;;5025220;28;20339;-57
2021/04/02 05:10:01;;;;;;;;;;;15.50;68.20;;;;;;5025959;28;19913;-60
2021/04/02 05:12:26;;;;;;;;;;;15.50;68.30;;;;;;5026028;28;19917;-57
2021/04/02 05:14:52;;;;;;;;;;;15.50;68.30;;;;;;5025361;28;19920;-57
2021/04/02 05:17:18;;;;;;;;;;;15.50;68.40;;;;;;5023866;28;19913;-57
2021/04/02 05:19:43;;;;;;;;;;;15.40;68.30;;;;;;5027776;28;20541;-57
2021/04/02 05:22:09;;;;;;;;;;;15.40;68.30;;;;;;5024612;28;19953;-59
2021/04/02 05:24:34;;;;;;;;;;;15.40;68.30;;;;;;5025410;28;19916;-62
2021/04/02 05:27:00;;;;;;;;;;;15.40;68.40;;;;;;5026133;28;19959;-57
2021/04/02 05:29:25;;;;;;;;;;;15.40;68.40;;;;;;5025352;28;19966;-60
2021/04/02 05:31:51;;;;;;;;;;;15.40;68.50;;;;;;5024724;28;19909;-61
2021/04/02 05:34:16;;;;;;;;;;;15.30;68.40;;;;;;5027184;28;19914;-59
2021/04/02 05:36:42;;;;;;;;;;;15.30;68.50;;;;;;5026940;28;19917;-57
2021/04/02 05:39:07;;;;;;;;;;;15.30;68.50;;;;;;5025252;28;19923;-60
2021/04/02 05:41:52;;;;;;;;;;;15.30;68.50;;;;;;5025069;28;19913;-60
2021/04/02 05:44:19;;;;;;;;;;;15.30;68.50;;;;;;5027030;28;19912;-57
2021/04/02 05:46:44;;;;;;;;;;;15.30;68.50;;;;;;5025222;28;19916;-57
2021/04/02 05:49:10;;;;;;;;;;;15.30;69.30;;;;;;5024165;28;19921;-60
2021/04/02 05:51:35;;;;;;;;;;;15.20;68.60;;;;;;5039475;28;19917;-58
2021/04/02 05:54:01;;;;;;;;;;;15.20;68.50;;;;;;5023327;28;19909;-65
2021/04/02 05:56:26;;;;;;;;;;;15.20;68.60;;;;;;5025574;28;19944;-59
2021/04/02 05:58:51;;;;;;;;;;;15.20;68.60;;;;;;5026744;28;19995;-57
2021/04/02 06:01:17;;;;;;;;;;;15.20;68.60;;;;;;5025812;28;19917;-60
2021/04/02 06:03:43;;;;;;;;;;;15.20;68.60;;;;;;5027062;28;19916;-55
2021/04/02 06:06:12;;;;;;;;;;;15.10;68.70;;;;;;5024209;28;20009;-60
2021/04/02 06:08:38;;;;;;;;;;;15.20;68.60;;;;;;5025056;28;19948;-59
2021/04/02 06:11:03;;;;;;;;;;;15.10;68.70;;;;;;5025994;28;19967;-60
2021/04/02 06:13:29;;;;;;;;;;;15.10;68.70;;;;;;5027546;28;19912;-59
2021/04/02 06:15:55;;;;;;;;;;;15.10;68.70;;;;;;5024016;28;19909;-57
2021/04/02 06:18:20;;;;;;;;;;;15.10;68.80;;;;;;5024706;28;19913;-60
2021/04/02 06:20:47;;;;;;;;;;;15.10;68.80;;;;;;5022261;28;19940;-58
2021/04/02 06:23:22;;;;;;;;;;;15.10;68.80;;;;;;5023088;28;19921;-60
2021/04/02 06:25:49;;;;;;;;;;;15.10;68.80;;;;;;5024230;28;19917;-56
2021/04/02 06:28:17;;;;;;;;;;;15.10;68.80;;;;;;5025237;28;20030;-57
2021/04/02 06:30:43;;;;;;;;;;;15.00;68.80;;;;;;5023779;28;19921;-60
2021/04/02 06:33:08;;;;;;;;;;;15.00;68.80;;;;;;5024554;28;20091;-58
2021/04/02 06:35:35;;;;;;;;;;;15.00;68.80;;;;;;5024340;28;20014;-61
2021/04/02 06:38:00;;;;;;;;;;;15.00;68.80;;;;;;5024639;28;19917;-59
2021/04/02 06:40:26;;;;;;;;;;;15.00;68.80;;;;;;5023675;28;19932;-60
2021/04/02 06:42:52;;;;;;;;;;;15.00;68.80;;;;;;5007520;28;19915;-60
2021/04/02 06:45:18;;;;;;;;;;;15.00;68.80;;;;;;5024718;28;19917;-60
2021/04/02 06:47:44;;;;;;;;;;;15.00;68.90;;;;;;5029563;28;20304;-57
2021/04/02 06:50:22;;;;;;;;;;;15.00;69.00;;;;;;5028330;28;19920;-56
2021/04/02 06:52:51;;;;;;;;;;;15.00;68.90;;;;;;5029456;28;20266;-58
2021/04/02 06:55:17;;;;;;;;;;;15.00;68.90;;;;;;5029986;28;20008;-60
2021/04/02 06:57:45;;;;;;;;;;;15.00;68.90;;;;;;5028955;28;20015;-60
2021/04/02 07:00:12;;;;;;;;;;;15.00;68.90;;;;;;5027953;28;20003;-58
2021/04/02 07:02:38;;;;;;;;;;;14.90;68.90;;;;;;5025761;28;19913;-57
2021/04/02 07:05:03;;;;;;;;;;;15.00;69.00;;;;;;5027897;28;19921;-59
2021/04/02 07:07:29;;;;;;;;;;;15.00;69.00;;;;;;5026792;28;20320;-56
2021/04/02 07:09:55;;;;;;;;;;;14.90;68.90;;;;;;5028658;28;19956;-58
2021/04/02 07:12:20;;;;;;;;;;;14.90;69.00;;;;;;5009726;28;19961;-57
2021/04/02 07:14:46;;;;;;;;;;;15.00;69.30;;;;;;5028839;28;19944;-60
2021/04/02 07:17:11;;;;;;;;;;;14.90;69.30;;;;;;5028918;28;19925;-57
2021/04/02 07:19:37;;;;;;;;;;;14.90;69.30;;;;;;5027433;28;19913;-57
2021/04/02 07:22:02;;;;;;;;;;;14.90;69.30;;;;;;5010557;28;19925;-59
2021/04/02 07:24:27;;;;;;;;;;;14.90;69.40;;;;;;5026434;28;19945;-61
2021/04/02 07:26:53;;;;;;;;;;;14.90;69.60;;;;;;5028078;28;19913;-59
2021/04/02 07:29:19;;;;;;;;;;;14.90;69.60;;;;;;5029052;28;19964;-57
2021/04/02 07:31:45;;;;;;;;;;;14.90;69.60;;;;;;5007589;28;19913;-57
2021/04/02 07:34:10;;;;;;;;;;;14.90;69.80;;;;;;5027082;28;20058;-60
2021/04/02 07:36:36;;;;;;;;;;;14.80;69.80;;;;;;5027608;28;20360;-59
2021/04/02 07:39:02;;;;;;;;;;;14.90;70.00;;;;;;5025266;28;19995;-56
2021/04/02 07:41:28;;;;;;;;;;;14.80;69.90;;;;;;5027294;28;19920;-60
2021/04/02 07:43:56;;;;;;;;;;;14.90;70.00;;;;;;5027822;28;19917;-59
2021/04/02 07:46:25;;;;;;;;;;;14.80;70.00;;;;;;5009609;28;19917;-59
2021/04/02 07:48:55;;;;;;;;;;;14.80;70.00;;;;;;5026970;28;19921;-56
2021/04/02 07:51:21;;;;;;;;;;;14.80;70.10;;;;;;5025722;28;20629;-55
2021/04/02 07:53:46;;;;;;;;;;;14.80;70.10;;;;;;5026372;28;19980;-60
2021/04/02 07:56:15;;;;;;;;;;;14.90;70.30;;;;;;5026863;28;19964;-56
2021/04/02 07:58:51;;;;;;;;;;;14.80;70.40;;;;;;5023990;28;19996;-61
2021/04/02 08:01:17;;;;;;;;;;;14.90;70.50;;;;;;5026141;28;19928;-58
2021/04/02 08:03:43;;;;;;;;;;;14.90;70.50;;;;;;5025229;28;19959;-60
2021/04/02 08:06:10;;;;;;;;;;;14.80;70.60;;;;;;5025072;28;19910;-56
2021/04/02 08:08:54;;;;;;;;;;;14.90;70.60;;;;;;5024913;28;19921;-60
2021/04/02 08:11:20;;;;;;;;;;;14.90;70.70;;;;;;5026878;28;19924;-59
2021/04/02 08:13:46;;;;;;;;;;;14.90;70.70;;;;;;5026752;28;19916;-59
2021/04/02 08:16:26;;;;;;;;;;;14.90;70.80;;;;;;5025774;28;20285;-58
2021/04/02 08:19:10;;;;;;;;;;;14.90;70.80;;;;;;5024802;28;19920;-60
2021/04/02 08:21:39;;;;;;;;;;;14.90;70.80;;;;;;5028020;28;19959;-61
2021/04/02 08:24:05;;;;;;;;;;;14.90;71.00;;;;;;5024188;28;20285;-58
2021/04/02 08:26:31;;;;;;;;;;;14.90;71.00;;;;;;5026362;28;20407;-58
2021/04/02 08:28:57;;;;;;;;;;;14.90;71.10;;;;;;5025292;28;19951;-56
2021/04/02 08:31:23;;;;;;;;;;;14.90;71.10;;;;;;5021867;28;19984;-59
2021/04/02 08:33:48;;;;;;;;;;;14.90;71.20;;;;;;5026959;28;20376;-57
2021/04/02 08:36:13;;;;;;;;;;;14.90;71.10;;;;;;5025051;28;19916;-60
2021/04/02 08:38:45;;;;;;;;;;;14.90;71.10;;;;;;4965112;28;1249153;-59
2021/04/02 08:41:14;;;;;;;;;;;14.90;71.10;;;;;;5027478;28;19976;-57
2021/04/02 08:43:40;;;;;;;;;;;14.90;71.10;;;;;;5026173;28;19913;-59
2021/04/02 08:46:05;;;;;;;;;;;14.90;71.30;;;;;;5024668;28;20812;-59
2021/04/02 08:48:31;;;;;;;;;;;14.90;71.30;;;;;;5027092;28;20234;-60
2021/04/02 08:50:56;;;;;;;;;;;14.90;71.20;;;;;;5026554;28;19917;-59
2021/04/02 08:53:22;;;;;;;;;;;15.00;71.30;;;;;;5026949;28;19913;-58
2021/04/02 08:55:47;;;;;;;;;;;14.90;71.30;;;;;;5025998;28;20545;-59
2021/04/02 08:58:13;;;;;;;;;;;15.00;71.30;;;;;;5025532;28;19909;-59
2021/04/02 09:00:38;;;;;;;;;;;15.00;71.30;;;;;;5025390;28;19917;-61
2021/04/02 09:03:04;;;;;;;;;;;15.00;71.30;;;;;;5023758;28;19963;-57
2021/04/02 09:05:30;;;;;;;;;;;15.00;71.20;;;;;;5024970;28;20429;-59
2021/04/02 09:07:56;;;;;;;;;;;15.00;71.30;;;;;;5024903;28;19928;-59
2021/04/02 09:10:21;;;;;;;;;;;15.00;71.20;;;;;;5026049;28;19909;-56
2021/04/02 09:12:48;;;;;;;;;;;15.10;71.10;;;;;;5027121;28;19940;-58
2021/04/02 09:15:20;;;;;;;;;;;15.10;71.00;;;;;;5025600;28;19943;-56
2021/04/02 09:17:46;;;;;;;;;;;15.10;71.00;;;;;;5026908;28;19909;-59
2021/04/02 09:20:12;;;;;;;;;;;15.10;71.00;;;;;;5025541;28;20317;-55
2021/04/02 09:22:37;;;;;;;;;;;15.10;71.00;;;;;;5023625;28;20372;-59
2021/04/02 09:25:03;;;;;;;;;;;15.10;71.10;;;;;;5026255;28;20384;-58
2021/04/02 09:27:28;;;;;;;;;;;15.10;71.90;;;;;;5026508;28;19921;-58
2021/04/02 09:29:57;;;;;;;;;;;15.10;71.50;;;;;;5024725;28;19959;-57
2021/04/02 09:32:32;;;;;;;;;;;15.10;71.30;;;;;;5026512;28;20033;-58
2021/04/02 09:34:57;;;;;;;;;;;15.10;71.60;;;;;;5025437;28;20315;-55
2021/04/02 09:37:23;;;;;;;;;;;15.20;71.50;;;;;;5022391;28;19921;-60
2021/04/02 09:39:48;;;;;;;;;;;15.20;71.60;;;;;;5008914;28;19952;-59
2021/04/02 09:42:14;;;;;;;;;;;15.20;71.60;;;;;;5008629;28;19960;-59
2021/04/02 09:44:40;;;;;;;;;;;15.20;71.60;;;;;;5026338;28;19924;-58
2021/04/02 09:47:05;;;;;;;;;;;15.30;71.80;;;;;;5007532;28;20368;-60
2021/04/02 09:49:31;;;;;;;;;;;15.20;71.60;;;;;;5024580;28;19920;-58
2021/04/02 09:51:57;;;;;;;;;;;15.30;71.60;;;;;;5024531;28;19924;-59
2021/04/02 09:54:25;;;;;;;;;;;15.30;71.60;;;;;;5026151;28;20007;-60
2021/04/02 09:56:52;;;;;;;;;;;15.30;71.40;;;;;;5024718;28;19909;-58
2021/04/02 09:59:17;;;;;;;;;;;15.30;71.60;;;;;;5025869;28;19971;-57
2021/04/02 10:01:43;;;;;;;;;;;15.30;71.50;;;;;;5006959;28;19917;-56
2021/04/02 10:04:09;;;;;;;;;;;15.30;71.30;;;;;;5022689;28;19913;-59
2021/04/02 10:06:34;;;;;;;;;;;15.30;71.30;;;;;;5008148;28;19936;-57
2021/04/02 10:09:00;;;;;;;;;;;15.30;71.30;;;;;;5026515;28;19913;-58
2021/04/02 10:11:25;;;;;;;;;;;15.40;71.20;;;;;;5024114;28;19956;-56
2021/04/02 10:13:51;;;;;;;;;;;15.40;71.20;;;;;;5023244;28;19917;-60
2021/04/02 10:16:16;;;;;;;;;;;15.40;71.20;;;;;;5024447;28;19913;-59
2021/04/02 10:18:42;;;;;;;;;;;15.40;71.10;;;;;;5006254;28;20284;-57
2021/04/02 10:21:08;;;;;;;;;;;15.40;71.00;;;;;;5008084;28;21200;-58
2021/04/02 10:23:34;;;;;;;;;;;15.50;70.90;;;;;;5025061;28;19913;-56
2021/04/02 10:25:59;;;;;;;;;;;15.50;70.70;;;;;;5025339;28;20376;-59
2021/04/02 10:28:24;;;;;;;;;;;15.50;70.70;;;;;;5025090;28;19917;-59
2021/04/02 10:30:51;;;;;;;;;;;15.50;70.70;;;;;;5024730;28;20352;-58
2021/04/02 10:33:16;;;;;;;;;;;15.60;70.60;;;;;;5025730;28;19927;-59
2021/04/02 10:35:42;;;;;;;;;;;15.60;70.70;;;;;;5025541;28;19909;-59
2021/04/02 10:38:07;;;;;;;;;;;15.60;70.60;;;;;;5024228;28;19948;-57
2021/04/02 10:40:36;;;;;;;;;;;15.70;70.80;;;;;;5024032;28;19968;-58
2021/04/02 10:43:01;;;;;;;;;;;15.70;70.60;;;;;;5023340;28;19922;-60
2021/04/02 10:45:27;;;;;;;;;;;15.70;70.70;;;;;;5024579;28;20330;-59
2021/04/02 10:47:52;;;;;;;;;;;15.70;70.50;;;;;;5025452;28;20050;-60
2021/04/02 10:50:18;;;;;;;;;;;15.70;70.30;;;;;;5025473;28;19924;-60
2021/04/02 10:52:43;;;;;;;;;;;15.80;70.30;;;;;;5023980;28;19913;-58
2021/04/02 10:55:09;;;;;;;;;;;15.80;70.20;;;;;;5024567;28;19910;-58
2021/04/02 10:57:34;;;;;;;;;;;15.80;70.10;;;;;;5024462;28;20411;-56
2021/04/02 11:00:00;;;;;;;;;;;15.90;70.00;;;;;;5026177;28;20288;-59
2021/04/02 11:02:25;;;;;;;;;;;15.90;70.00;;;;;;5025697;28;19936;-58
2021/04/02 11:04:51;;;;;;;;;;;16.00;70.00;;;;;;5007076;28;19940;-56
2021/04/02 11:07:16;;;;;;;;;;;16.00;69.80;;;;;;5024363;28;20398;-59
2021/04/02 11:09:42;;;;;;;;;;;16.00;69.70;;;;;;5024403;28;19956;-56
2021/04/02 11:12:07;;;;;;;;;;;16.00;69.60;;;;;;5020846;28;19921;-58
2021/04/02 11:14:33;;;;;;;;;;;16.00;69.60;;;;;;5024499;28;19909;-58
2021/04/02 11:16:58;;;;;;;;;;;16.10;69.50;;;;;;5023030;28;20266;-59
2021/04/02 11:19:24;;;;;;;;;;;16.10;69.40;;;;;;5024183;28;19917;-59
2021/04/02 11:21:49;;;;;;;;;;;16.20;69.40;;;;;;5023991;28;20148;-55
2021/04/02 11:24:15;;;;;;;;;;;16.20;69.30;;;;;;5025492;28;20390;-56
2021/04/02 11:26:41;;;;;;;;;;;16.20;69.20;;;;;;5025752;28;19984;-60
2021/04/02 11:29:06;;;;;;;;;;;16.20;69.20;;;;;;5024778;28;20253;-58
2021/04/02 11:31:32;;;;;;;;;;;16.30;69.20;;;;;;5024754;28;20015;-57
2021/04/02 11:33:57;;;;;;;;;;;16.40;69.10;;;;;;5026743;28;20264;-57
2021/04/02 11:36:23;;;;;;;;;;;16.40;69.00;;;;;;5026669;28;20365;-59
2021/04/02 11:38:48;;;;;;;;;;;16.40;68.80;;;;;;5028519;28;19913;-62
2021/04/02 11:41:13;;;;;;;;;;;16.40;68.80;;;;;;5027015;28;19917;-55
2021/04/02 11:43:39;;;;;;;;;;;16.50;68.60;;;;;;5025789;28;20016;-60
2021/04/02 11:46:05;;;;;;;;;;;16.50;68.50;;;;;;5026990;28;20395;-59
2021/04/02 11:48:30;;;;;;;;;;;16.60;68.40;;;;;;5025284;28;19931;-57
2021/04/02 11:50:55;;;;;;;;;;;16.60;68.30;;;;;;5024626;28;20384;-56
2021/04/02 11:53:21;;;;;;;;;;;16.70;68.10;;;;;;5024677;28;19936;-58
2021/04/02 11:55:46;;;;;;;;;;;16.80;68.00;;;;;;5026731;28;19917;-59
2021/04/02 11:58:13;;;;;;;;;;;16.80;67.90;;;;;;5007663;28;19913;-58
2021/04/02 12:00:38;;;;;;;;;;;16.80;67.80;;;;;;5020916;28;19921;-56
2021/04/02 12:03:04;;;;;;;;;;;16.90;67.70;;;;;;5026393;28;19963;-60
2021/04/02 12:05:29;;;;;;;;;;;17.00;67.60;;;;;;5027333;28;19917;-59
2021/04/02 12:07:55;;;;;;;;;;;17.00;67.60;;;;;;5026445;28;19960;-58
2021/04/02 12:10:20;;;;;;;;;;;17.00;67.40;;;;;;5024057;28;20054;-58
2021/04/02 12:12:46;;;;;;;;;;;17.10;67.20;;;;;;5023982;28;19909;-59
2021/04/02 12:15:11;;;;;;;;;;;17.10;67.20;;;;;;5026332;28;19928;-61
2021/04/02 12:17:37;;;;;;;;;;;17.20;67.30;;;;;;5026644;28;19913;-59
2021/04/02 12:20:06;;;;;;;;;;;17.30;67.10;;;;;;5024980;28;19913;-59
2021/04/02 12:22:32;;;;;;;;;;;17.30;66.90;;;;;;5027351;28;19993;-56
2021/04/02 12:24:57;;;;;;;;;;;17.40;66.90;;;;;;5027612;28;19929;-59
2021/04/02 12:27:23;;;;;;;;;;;17.40;66.70;;;;;;5024078;28;19913;-56
2021/04/02 12:29:49;;;;;;;;;;;17.50;66.70;;;;;;5025097;28;20320;-60
2021/04/02 12:32:14;;;;;;;;;;;17.60;66.70;;;;;;5026698;28;20142;-57
2021/04/02 12:34:39;;;;;;;;;;;17.60;66.50;;;;;;5026025;28;20459;-60
2021/04/02 12:37:05;;;;;;;;;;;17.70;66.50;;;;;;5025615;28;20305;-57
2021/04/02 12:39:30;;;;;;;;;;;17.70;66.40;;;;;;5006071;28;19964;-59
2021/04/02 12:41:56;;;;;;;;;;;17.70;66.30;;;;;;5025475;28;20376;-60
2021/04/02 12:44:21;;;;;;;;;;;17.80;66.30;;;;;;5006200;28;19917;-59
2021/04/02 12:46:47;;;;;;;;;;;17.80;66.20;;;;;;5027783;28;19917;-56
2021/04/02 12:49:12;;;;;;;;;;;17.90;66.00;;;;;;5025921;28;19917;-57
2021/04/02 12:51:38;;;;;;;;;;;18.00;66.00;;;;;;5026266;28;19910;-55
2021/04/02 12:54:03;;;;;;;;;;;18.00;65.80;;;;;;5007789;28;19922;-58
2021/04/02 12:56:29;;;;;;;;;;;18.10;65.80;;;;;;5025628;28;20004;-58
2021/04/02 12:58:54;;;;;;;;;;;18.20;65.70;;;;;;5027393;28;19945;-59
2021/04/02 13:01:20;;;;;;;;;;;18.20;65.70;;;;;;5024727;28;19917;-60
2021/04/02 13:03:45;;;;;;;;;;;18.20;65.80;;;;;;5039919;28;20035;-58
2021/04/02 13:06:10;;;;;;;;;;;18.30;65.60;;;;;;5024011;28;19967;-61
2021/04/02 13:08:36;;;;;;;;;;;18.40;65.50;;;;;;5026993;28;20632;-60
2021/04/02 13:11:01;;;;;;;;;;;18.40;65.40;;;;;;5027652;28;19913;-57
2021/04/02 13:13:27;;;;;;;;;;;18.50;65.20;;;;;;5022270;28;19916;-60
2021/04/02 13:15:52;;;;;;;;;;;18.60;65.10;;;;;;5024022;28;19959;-59
2021/04/02 13:18:18;;;;;;;;;;;18.60;65.00;;;;;;5025693;28;20383;-60
2021/04/02 13:20:43;;;;;;;;;;;18.70;64.80;;;;;;5026722;28;19920;-61
2021/04/02 13:23:09;;;;;;;;;;;18.80;64.70;;;;;;5026851;28;19910;-56
2021/04/02 13:25:34;;;;;;;;;;;18.80;64.60;;;;;;5027042;28;20357;-59
2021/04/02 13:28:00;;;;;;;;;;;18.80;64.40;;;;;;5027107;28;19912;-60
2021/04/02 13:30:26;;;;;;;;;;;19.00;64.40;;;;;;5026007;28;19919;-57
2021/04/02 13:32:52;;;;;;;;;;;19.00;64.20;;;;;;5025829;28;19983;-58
2021/04/02 13:35:18;;;;;;;;;;;19.10;63.90;;;;;;5027504;28;19913;-59
2021/04/02 13:37:44;;;;;;;;;;;19.20;63.70;;;;;;5026794;28;20300;-58
2021/04/02 13:40:10;;;;;;;;;;;19.20;63.50;;;;;;5024188;28;19929;-59
2021/04/02 13:42:35;;;;;;;;;;;19.30;63.10;;;;;;5024628;28;19909;-56
2021/04/02 13:45:01;;;;;;;;;;;19.40;62.80;;;;;;5024630;28;19917;-59
2021/04/02 13:47:27;;;;;;;;;;;19.40;62.40;;;;;;5025207;28;20413;-59
2021/04/02 13:49:52;;;;;;;;;;;19.50;62.30;;;;;;5025998;28;19917;-58
2021/04/02 13:52:19;;;;;;;;;;;19.60;62.30;;;;;;5027698;28;19917;-57
2021/04/02 13:54:44;;;;;;;;;;;19.60;62.20;;;;;;5023041;28;19917;-59
2021/04/02 13:57:10;;;;;;;;;;;19.70;61.80;;;;;;5022530;28;19909;-57
2021/04/02 13:59:35;;;;;;;;;;;19.70;61.30;;;;;;5023395;28;19996;-56
2021/04/02 14:02:01;;;;;;;;;;;19.80;61.50;;;;;;5027711;28;20368;-59
2021/04/02 14:04:26;;;;;;;;;;;19.80;61.00;;;;;;5024347;28;19917;-61
2021/04/02 14:06:51;;;;;;;;;;;19.90;60.50;;;;;;5025703;28;19941;-59
2021/04/02 14:09:17;;;;;;;;;;;19.90;60.10;;;;;;5024732;28;19921;-61
2021/04/02 14:11:44;;;;;;;;;;;20.00;58.90;;;;;;5021794;28;20055;-62